createdAt,value
2023-03-01T00:02:42.988Z,52.50
2023-03-01T00:05:47.314Z,52.60
2023-03-01T00:08:52.410Z,52.00
2023-03-01T00:11:55.677Z,53.60
2023-03-01T00:14:58.978Z,52.50
2023-03-01T00:18:02.239Z,54.40
2023-03-01T00:21:06.386Z,55.00
2023-03-01T00:24:11.853Z,57.00
2023-03-01T00:27:15.157Z,55.60
2023-03-01T00:30:18.812Z,58.20
2023-03-01T00:33:22.143Z,60.00
2023-03-01T00:36:27.851Z,59.80
2023-03-01T00:39:32.873Z,57.00
2023-03-01T00:42:36.165Z,56.40
2023-03-01T00:45:39.521Z,56.60
2023-03-01T00:48:42.873Z,59.40
2023-03-01T00:51:46.141Z,60.00
2023-03-01T00:54:50.945Z,54.00
2023-03-01T00:57:54.209Z,58.00
2023-03-01T01:00:57.593Z,58.00
2023-03-01T01:04:03.358Z,57.20
2023-03-01T01:07:06.677Z,62.20
2023-03-01T01:10:18.135Z,61.40
2023-03-01T01:13:21.481Z,64.60
2023-03-01T01:16:27.583Z,62.00
2023-03-01T01:19:31.236Z,67.00
2023-03-01T01:22:34.536Z,62.40
2023-03-01T01:25:39.551Z,65.00
2023-03-01T01:28:42.892Z,62.40
2023-03-01T01:31:46.631Z,62.00
2023-03-01T01:34:50.074Z,61.50
2023-03-01T01:37:53.384Z,62.40
2023-03-01T01:40:58.222Z,62.60
2023-03-01T01:44:15.350Z,63.25
2023-03-01T01:47:22.345Z,63.00
2023-03-01T01:50:26.104Z,61.00
2023-03-01T01:53:30.182Z,62.60
2023-03-01T01:56:35.203Z,65.00
2023-03-01T01:59:41.256Z,74.60
2023-03-01T02:02:46.811Z,75.75
2023-03-01T02:05:55.977Z,113.60
2023-03-01T02:09:03.318Z,89.80
2023-03-01T02:12:08.284Z,92.60
2023-03-01T02:15:12.971Z,89.00
2023-03-01T02:18:20.414Z,83.60
2023-03-01T02:21:36.544Z,79.25
2023-03-01T02:24:48.404Z,78.80
2023-03-01T02:28:00.439Z,77.00
2023-03-01T02:31:24.151Z,76.00
2023-03-01T02:34:28.063Z,73.80
2023-03-01T02:37:31.352Z,72.00
2023-03-01T02:40:36.876Z,72.25
2023-03-01T02:43:40.242Z,75.00
2023-03-01T02:46:50.078Z,72.00
2023-03-01T02:49:53.430Z,72.00
2023-03-01T02:53:03.118Z,70.00
2023-03-01T02:56:06.777Z,68.60
2023-03-01T02:59:11.381Z,71.00
2023-03-01T03:02:37.104Z,69.50
2023-03-01T03:05:50.544Z,72.00
2023-03-01T03:08:53.826Z,66.80
2023-03-01T03:11:57.181Z,66.00
2023-03-01T03:15:00.858Z,63.00
2023-03-01T03:18:07.512Z,64.50
2023-03-01T03:21:12.097Z,64.60
2023-03-01T03:24:15.611Z,63.60
2023-03-01T03:27:18.838Z,69.40
2023-03-01T03:30:22.716Z,66.00
2023-03-01T03:33:27.323Z,63.00
2023-03-01T03:36:31.211Z,64.25
2023-03-01T03:39:35.891Z,63.67
2023-03-01T03:42:39.218Z,62.00
2023-03-01T03:45:43.038Z,63.00
2023-03-01T03:48:48.288Z,61.50
2023-03-01T03:51:51.530Z,62.25
2023-03-01T03:54:55.041Z,61.60
2023-03-01T03:58:03.038Z,63.25
2023-03-01T04:01:07.284Z,60.40
2023-03-01T04:04:11.962Z,63.40
2023-03-01T04:07:15.216Z,62.60
2023-03-01T04:10:20.357Z,63.00
2023-03-01T04:13:26.296Z,61.50
2023-03-01T04:16:29.960Z,61.00
2023-03-01T04:19:37.110Z,67.00
2023-03-01T04:22:41.076Z,62.60
2023-03-01T04:25:50.523Z,64.00
2023-03-01T04:28:53.801Z,62.25
2023-03-01T04:31:57.752Z,63.25
2023-03-01T04:35:02.950Z,60.60
2023-03-01T04:38:07.132Z,65.25
2023-03-01T04:41:12.776Z,63.00
2023-03-01T04:44:16.015Z,65.60
2023-03-01T04:47:20.028Z,62.20
2023-03-01T04:50:25.136Z,65.50
2023-03-01T04:53:28.850Z,64.00
2023-03-01T04:56:32.499Z,66.50
2023-03-01T04:59:37.257Z,64.00
2023-03-01T05:02:40.616Z,66.00
2023-03-01T05:05:45.329Z,62.25
2023-03-01T05:08:49.218Z,63.60
2023-03-01T05:11:52.820Z,65.75
2023-03-01T05:14:56.075Z,65.20
2023-03-01T05:18:01.475Z,67.00
2023-03-01T05:21:08.774Z,65.80
2023-03-01T05:24:12.761Z,64.20
2023-03-01T05:27:16.088Z,66.20
2023-03-01T05:30:20.443Z,67.00
2023-03-01T05:33:23.918Z,67.40
2023-03-01T05:36:28.699Z,64.60
2023-03-01T05:39:32.613Z,61.60
2023-03-01T05:42:36.510Z,64.00
2023-03-01T05:45:41.659Z,66.50
2023-03-01T05:48:45.044Z,65.60
2023-03-01T05:51:52.659Z,62.50
2023-03-01T05:54:56.456Z,66.60
2023-03-01T05:58:01.297Z,64.60
2023-03-01T06:01:04.611Z,68.40
2023-03-01T06:04:08.080Z,67.00
2023-03-01T06:07:13.070Z,70.20
2023-03-01T06:10:16.999Z,69.40
2023-03-01T06:13:20.536Z,64.60
2023-03-01T06:16:23.780Z,66.60
2023-03-01T06:19:27.077Z,67.40
2023-03-01T06:22:31.709Z,67.60
2023-03-01T06:25:35.215Z,67.60
2023-03-01T06:28:38.498Z,67.00
2023-03-01T06:31:41.808Z,66.00
2023-03-01T06:34:45.407Z,68.40
2023-03-01T06:37:50.140Z,66.75
2023-03-01T06:40:59.435Z,68.40
2023-03-01T06:44:03.907Z,67.25
2023-03-01T06:47:07.111Z,65.60
2023-03-01T06:50:11.721Z,70.00
2023-03-01T06:53:16.318Z,65.00
2023-03-01T06:56:19.591Z,66.00
2023-03-01T06:59:23.409Z,69.50
2023-03-01T07:02:26.722Z,68.60
2023-03-01T07:05:30.660Z,69.80
2023-03-01T07:08:35.272Z,68.00
2023-03-01T07:11:38.857Z,67.20
2023-03-01T07:14:42.262Z,71.75
2023-03-01T07:17:45.824Z,66.20
2023-03-01T07:20:49.098Z,70.20
2023-03-01T07:23:53.774Z,63.80
2023-03-01T07:26:57.083Z,63.00
2023-03-01T07:30:00.325Z,64.20
2023-03-01T07:33:03.726Z,61.00
2023-03-01T07:36:08.619Z,58.00
2023-03-01T07:39:13.521Z,60.75
2023-03-01T07:42:16.859Z,65.00
2023-03-01T07:45:20.399Z,62.00
2023-03-01T07:48:23.801Z,60.00
2023-03-01T07:51:27.159Z,55.80
2023-03-01T07:54:31.824Z,57.00
2023-03-01T07:57:35.145Z,53.25
2023-03-01T08:00:38.804Z,56.00
2023-03-01T08:03:42.687Z,56.50
2023-03-01T08:06:46.264Z,56.50
2023-03-01T08:09:51.035Z,56.20
2023-03-01T08:12:54.971Z,56.40
2023-03-01T08:16:03.769Z,56.20
2023-03-01T08:19:07.955Z,55.00
2023-03-01T08:22:11.232Z,58.25
2023-03-01T08:25:15.919Z,57.00
2023-03-01T08:28:19.272Z,55.80
2023-03-01T08:31:24.849Z,56.00
2023-03-01T08:34:28.386Z,54.67
2023-03-01T08:37:33.886Z,52.00
2023-03-01T08:40:38.530Z,49.80
2023-03-01T08:43:41.885Z,49.40
2023-03-01T08:46:46.535Z,52.25
2023-03-01T08:49:52.095Z,51.00
2023-03-01T08:52:55.311Z,49.40
2023-03-01T08:56:03.578Z,45.75
2023-03-01T08:59:06.972Z,39.50
2023-03-01T09:02:15.229Z,45.20
2023-03-01T09:05:20.282Z,49.00
2023-03-01T09:08:23.792Z,45.80
2023-03-01T09:11:29.955Z,49.00
2023-03-01T09:14:33.322Z,46.00
2023-03-01T09:17:36.652Z,39.00
2023-03-01T09:20:40.342Z,39.00
2023-03-01T09:23:45.247Z,39.00
2023-03-01T09:26:51.655Z,38.60
2023-03-01T09:29:57.479Z,38.00
2023-03-01T09:33:01.182Z,41.00
2023-03-01T09:36:08.135Z,36.00
2023-03-01T09:39:11.482Z,33.60
2023-03-01T09:42:17.196Z,35.40
2023-03-01T09:45:29.994Z,35.00
2023-03-01T09:48:39.620Z,35.60
2023-03-01T09:51:45.224Z,35.00
2023-03-01T09:54:49.218Z,34.00
2023-03-01T09:58:03.618Z,32.25
2023-03-01T10:01:22.766Z,35.00
2023-03-01T10:04:42.643Z,32.00
2023-03-01T10:07:55.741Z,27.20
2023-03-01T10:11:00.633Z,26.50
2023-03-01T10:14:09.643Z,31.40
2023-03-01T10:17:26.493Z,27.60
2023-03-01T10:20:44.987Z,31.25
2023-03-01T10:23:52.863Z,33.00
2023-03-01T10:26:58.542Z,32.25
2023-03-01T10:30:12.997Z,29.20
2023-03-01T10:33:22.374Z,30.00
2023-03-01T10:36:26.495Z,33.25
2023-03-01T10:39:30.091Z,27.75
2023-03-01T10:42:35.697Z,29.00
2023-03-01T10:45:42.019Z,34.40
2023-03-01T10:48:45.298Z,28.60
2023-03-01T10:51:51.664Z,28.00
2023-03-01T10:54:58.588Z,29.20
2023-03-01T10:58:21.508Z,31.00
2023-03-01T11:01:33.454Z,29.40
2023-03-01T11:04:37.606Z,31.00
2023-03-01T11:07:49.964Z,29.40
2023-03-01T11:10:53.483Z,32.60
2023-03-01T11:13:59.894Z,31.00
2023-03-01T11:17:07.233Z,34.40
2023-03-01T11:20:30.181Z,37.00
2023-03-01T11:23:35.183Z,37.00
2023-03-01T11:26:42.723Z,43.80
2023-03-01T11:29:52.178Z,40.25
2023-03-01T11:33:06.252Z,37.00
2023-03-01T11:36:18.860Z,37.60
2023-03-01T11:39:33.296Z,41.00
2023-03-01T11:42:50.518Z,38.80
2023-03-01T11:46:09.545Z,42.60
2023-03-01T11:49:37.785Z,41.00
2023-03-01T11:52:51.187Z,40.00
2023-03-01T11:56:06.036Z,39.00
2023-03-01T11:59:38.441Z,36.75
2023-03-01T12:03:11.794Z,33.20
2023-03-01T12:06:29.373Z,35.00
2023-03-01T12:09:44.443Z,35.40
2023-03-01T12:13:09.896Z,36.50
2023-03-01T12:16:39.579Z,36.40
2023-03-01T12:20:15.391Z,35.40
2023-03-01T12:23:40.699Z,38.25
2023-03-01T12:26:54.502Z,34.50
2023-03-01T12:30:11.829Z,35.40
2023-03-01T12:33:25.703Z,39.00
2023-03-01T12:36:45.018Z,39.40
2023-03-01T12:40:02.030Z,40.00
2023-03-01T12:43:16.606Z,42.40
2023-03-01T12:46:34.184Z,39.60
2023-03-01T12:49:43.347Z,41.00
2023-03-01T12:52:51.478Z,39.40
2023-03-01T12:56:00.880Z,38.00
2023-03-01T12:59:14.835Z,33.80
2023-03-01T13:02:26.502Z,38.80
2023-03-01T13:05:43.124Z,40.00
2023-03-01T13:08:57.101Z,40.25
2023-03-01T13:12:04.372Z,37.40
2023-03-01T13:15:36.743Z,39.75
2023-03-01T13:18:40.006Z,44.40
2023-03-01T13:21:44.211Z,34.40
2023-03-01T13:24:47.597Z,38.00
2023-03-01T13:27:52.719Z,35.60
2023-03-01T13:30:55.998Z,29.00
2023-03-01T13:34:00.400Z,31.50
2023-03-01T13:37:22.204Z,30.00
2023-03-01T13:40:59.263Z,33.67
2023-03-01T13:44:12.645Z,35.60
2023-03-01T13:47:20.028Z,34.20
2023-03-01T13:50:26.743Z,35.40
2023-03-01T13:53:34.127Z,34.40
2023-03-01T13:56:39.881Z,31.25
2023-03-01T13:59:50.616Z,28.00
2023-03-01T14:03:06.150Z,29.00
2023-03-01T14:06:16.853Z,31.40
2023-03-01T14:09:25.860Z,25.00
2023-03-01T14:12:42.036Z,30.00
2023-03-01T14:15:59.725Z,33.60
2023-03-01T14:19:27.710Z,33.80
2023-03-01T14:22:38.318Z,32.20
2023-03-01T14:25:49.618Z,27.75
2023-03-01T14:28:53.526Z,31.25
2023-03-01T14:32:10.299Z,32.00
2023-03-01T14:35:23.792Z,29.00
2023-03-01T14:38:33.566Z,31.80
2023-03-01T14:41:38.535Z,28.40
2023-03-01T14:44:44.456Z,29.00
2023-03-01T14:47:50.069Z,26.00
2023-03-01T14:50:53.494Z,30.00
2023-03-01T14:53:57.261Z,29.00
2023-03-01T14:57:02.156Z,26.80
2023-03-01T15:00:09.446Z,27.00
2023-03-01T15:03:23.077Z,28.00
2023-03-01T15:06:26.655Z,26.00
2023-03-01T15:09:30.795Z,27.00
2023-03-01T15:12:40.140Z,29.00
2023-03-01T15:15:47.427Z,27.20
2023-03-01T15:18:55.095Z,29.00
2023-03-01T15:21:59.992Z,25.00
2023-03-01T15:25:03.281Z,26.33
2023-03-01T15:28:06.892Z,26.20
2023-03-01T15:31:22.055Z,28.50
2023-03-01T15:34:29.943Z,31.00
2023-03-01T15:37:51.442Z,31.20
2023-03-01T15:40:55.356Z,35.20
2023-03-01T15:43:59.947Z,30.75
2023-03-01T15:47:04.244Z,27.00
2023-03-01T15:50:20.287Z,29.00
2023-03-01T15:53:23.658Z,31.40
2023-03-01T15:56:27.135Z,32.50
2023-03-01T15:59:30.384Z,33.80
2023-03-01T16:02:33.798Z,32.00
2023-03-01T16:05:38.581Z,31.80
2023-03-01T16:08:42.841Z,33.40
2023-03-01T16:11:46.115Z,31.60
2023-03-01T16:14:49.999Z,32.40
2023-03-01T16:17:53.794Z,32.60
2023-03-01T16:21:00.592Z,34.00
2023-03-01T16:24:04.020Z,35.00
2023-03-01T16:27:07.353Z,35.40
2023-03-01T16:30:12.257Z,33.60
2023-03-01T16:33:33.765Z,32.00
2023-03-01T16:36:39.752Z,32.00
2023-03-01T16:39:43.100Z,34.60
2023-03-01T16:42:46.347Z,35.40
2023-03-01T16:45:49.665Z,36.20
2023-03-01T16:48:53.968Z,36.50
2023-03-01T16:51:59.405Z,35.00
2023-03-01T16:55:04.545Z,36.50
2023-03-01T16:58:08.350Z,39.25
2023-03-01T17:01:13.429Z,28.50
2023-03-01T17:04:17.749Z,33.50
2023-03-01T17:07:23.977Z,35.00
2023-03-01T17:10:27.376Z,34.25
2023-03-01T17:13:30.670Z,32.00
2023-03-01T17:16:33.969Z,33.40
2023-03-01T17:19:40.798Z,32.25
2023-03-01T17:22:45.666Z,36.00
2023-03-01T17:25:48.962Z,36.00
2023-03-01T17:28:52.879Z,27.75
2023-03-01T17:31:56.770Z,29.33
2023-03-01T17:35:00.534Z,31.00
2023-03-01T17:38:05.218Z,32.60
2023-03-01T17:41:11.493Z,34.25
2023-03-01T17:44:14.760Z,33.20
2023-03-01T17:47:18.092Z,34.40
2023-03-01T17:50:21.443Z,37.50
2023-03-01T17:53:26.317Z,32.50
2023-03-01T17:56:29.855Z,34.20
2023-03-01T17:59:34.372Z,39.50
2023-03-01T18:02:37.691Z,41.50
2023-03-01T18:05:41.261Z,37.20
2023-03-01T18:08:47.217Z,42.00
2023-03-01T18:11:50.516Z,35.60
2023-03-01T18:14:53.971Z,45.00
2023-03-01T18:17:57.296Z,51.40
2023-03-01T18:21:02.142Z,51.00
2023-03-01T18:24:07.688Z,52.60
2023-03-01T18:27:11.033Z,51.00
2023-03-01T18:30:15.665Z,51.40
2023-03-01T18:33:19.157Z,51.60
2023-03-01T18:36:25.112Z,55.67
2023-03-01T18:39:29.921Z,54.60
2023-03-01T18:42:33.216Z,53.20
2023-03-01T18:45:36.977Z,50.40
2023-03-01T18:48:40.272Z,54.00
2023-03-01T18:51:44.099Z,54.00
2023-03-01T18:54:49.115Z,52.40
2023-03-01T18:57:52.366Z,50.80
2023-03-01T19:00:55.668Z,53.00
2023-03-01T19:03:59.877Z,50.60
2023-03-01T19:07:04.217Z,55.00
2023-03-01T19:10:10.352Z,56.50
2023-03-01T19:13:13.609Z,53.40
2023-03-01T19:16:21.211Z,52.75
2023-03-01T19:19:24.603Z,52.00
2023-03-01T19:22:28.533Z,52.80
2023-03-01T19:25:33.200Z,50.00
2023-03-01T19:28:39.481Z,50.00
2023-03-01T19:31:43.144Z,50.00
2023-03-01T19:34:46.860Z,51.00
2023-03-01T19:37:50.119Z,50.00
2023-03-01T19:40:55.495Z,48.60
2023-03-01T19:43:59.183Z,51.00
2023-03-01T19:47:02.492Z,49.80
2023-03-01T19:50:06.228Z,50.00
2023-03-01T19:53:09.460Z,49.40
2023-03-01T19:56:14.699Z,49.00
2023-03-01T19:59:24.313Z,49.40
2023-03-01T20:02:28.483Z,49.00
2023-03-01T20:05:34.772Z,45.40
2023-03-01T20:08:38.165Z,46.50
2023-03-01T20:11:43.602Z,49.40
2023-03-01T20:14:48.840Z,48.50
2023-03-01T20:17:52.178Z,47.00
2023-03-01T20:20:55.923Z,45.25
2023-03-01T20:23:59.566Z,50.00
2023-03-01T20:27:04.542Z,47.00
2023-03-01T20:30:09.313Z,41.40
2023-03-01T20:33:12.965Z,42.80
2023-03-01T20:36:16.623Z,46.00
2023-03-01T20:39:20.343Z,44.00
2023-03-01T20:42:25.075Z,47.00
2023-03-01T20:45:28.728Z,45.60
2023-03-01T20:48:32.000Z,47.00
2023-03-01T20:51:35.256Z,46.60
2023-03-01T20:54:38.601Z,43.00
2023-03-01T20:57:43.747Z,50.00
2023-03-01T21:00:47.043Z,45.00
2023-03-01T21:03:50.731Z,49.60
2023-03-01T21:06:54.012Z,47.80
2023-03-01T21:09:57.254Z,49.60
2023-03-01T21:13:01.927Z,49.00
2023-03-01T21:16:10.334Z,48.25
2023-03-01T21:19:14.315Z,51.60
2023-03-01T21:22:18.383Z,52.00
2023-03-01T21:25:21.696Z,51.80
2023-03-01T21:28:27.450Z,51.00
2023-03-01T21:31:35.405Z,51.60
2023-03-01T21:34:39.464Z,50.60
2023-03-01T21:37:42.715Z,50.00
2023-03-01T21:40:46.000Z,50.00
2023-03-01T21:43:51.927Z,48.50
2023-03-01T21:46:55.756Z,54.00
2023-03-01T21:49:59.074Z,52.75
2023-03-01T21:53:05.168Z,49.60
2023-03-01T21:56:09.742Z,49.75
2023-03-01T21:59:18.177Z,50.40
2023-03-01T22:02:21.497Z,48.40
2023-03-01T22:05:24.847Z,50.00
2023-03-01T22:08:29.229Z,46.80
2023-03-01T22:11:33.904Z,49.50
2023-03-01T22:14:38.555Z,48.60
2023-03-01T22:17:41.822Z,49.00
2023-03-01T22:20:45.145Z,49.50
2023-03-01T22:23:49.273Z,53.50
2023-03-01T22:26:53.780Z,53.00
2023-03-01T22:29:58.813Z,51.40
2023-03-01T22:33:02.150Z,50.40
2023-03-01T22:36:06.378Z,48.00
2023-03-01T22:39:09.740Z,47.00
2023-03-01T22:42:13.079Z,53.00
2023-03-01T22:45:17.821Z,53.25
2023-03-01T22:48:21.154Z,47.40
2023-03-01T22:51:27.097Z,49.40
2023-03-01T22:54:30.394Z,49.50
2023-03-01T22:57:33.714Z,50.40
2023-03-01T23:00:38.570Z,52.00
2023-03-01T23:03:42.504Z,50.20
2023-03-01T23:06:51.948Z,53.40
2023-03-01T23:09:55.301Z,52.00
2023-03-01T23:12:58.569Z,50.00
2023-03-01T23:16:03.320Z,50.80
2023-03-01T23:19:06.599Z,50.25
2023-03-01T23:22:09.863Z,49.40
2023-03-01T23:25:13.467Z,50.60
2023-03-01T23:28:16.952Z,50.20
2023-03-01T23:31:21.856Z,50.25
2023-03-01T23:34:25.240Z,50.80
2023-03-01T23:37:31.134Z,48.60
2023-03-01T23:40:34.366Z,52.25
2023-03-01T23:43:37.721Z,50.20
2023-03-01T23:46:43.080Z,51.20
2023-03-01T23:49:46.442Z,50.00
2023-03-01T23:52:49.757Z,50.00
2023-03-01T23:55:55.224Z,55.67
2023-03-01T23:59:00.114Z,56.40
